KTIX/TIX METAR and TAF weather

Enter ICAO airport designator
Station Type Date Time Source
KTIX METAR 2021/05/13 00:48 UTC NOAA

KTIX 130048Z 00000KT 7SM SCT110 25/24 A3001


Station Type Date Time Source
KTIX Decoded METAR 2021/05/13 00:48 UTC NOAA

Titusville, FL, United States (KTIX) 28-31N 080-48W
May 12, 2021 - 08:48 PM EDT / 2021.05.13 0048 UTC
Wind: Calm:0
Visibility: 7 mile(s):0
Sky conditions: partly cloudy
Temperature: 77 F (25 C)
Dew Point: 75 F (24 C)
Relative Humidity: 94%
Pressure (altimeter): 30.01 in. Hg (1016 hPa)
ob: KTIX 130048Z 00000KT 7SM SCT110 25/24 A3001
cycle: 1

Station Type Date Time Source
KTIX TAF 2021/05/13 06:42 UTC NOAA

TAF KTIX 130540Z 1306/1406 VRB05KT P6SM SCT070 BKN150
FM131000 32007KT P6SM VCSH SCT025 BKN035
FM131400 35012G19KT P6SM VCSH SCT010 BKN025 BKN120
FM132100 02014G21KT P6SM VCSH SCT030 BKN060
AMD NOT SKED TIL 131100

Example: see airport list